createdAt,value
2023-02-07T00:02:49.310Z,13.16
2023-02-07T00:07:49.201Z,13.16
2023-02-07T00:12:49.190Z,13.05
2023-02-07T00:17:49.176Z,12.94
2023-02-07T00:22:51.825Z,12.57
2023-02-07T00:27:49.273Z,12.68
2023-02-07T00:32:49.112Z,12.62
2023-02-07T00:37:49.107Z,12.68
2023-02-07T00:42:49.063Z,13.16
2023-02-07T00:47:49.056Z,12.84
2023-02-07T00:52:49.029Z,12.78
2023-02-07T00:57:49.024Z,13.16
2023-02-07T01:02:48.996Z,12.57
2023-02-07T01:07:49.007Z,12.57
2023-02-07T01:12:48.972Z,13.27
2023-02-07T01:17:48.971Z,12.57
2023-02-07T01:22:48.923Z,12.51
2023-02-07T01:27:48.944Z,12.57
2023-02-07T01:32:48.856Z,12.41
2023-02-07T01:37:48.835Z,12.62
2023-02-07T01:42:48.829Z,12.46
2023-02-07T01:47:48.818Z,12.62
2023-02-07T01:52:48.806Z,12.30
2023-02-07T01:57:48.789Z,12.57
2023-02-07T02:02:48.909Z,11.98
2023-02-07T02:07:48.693Z,12.84
2023-02-07T02:12:51.341Z,12.78
2023-02-07T02:17:48.670Z,12.57
2023-02-07T02:22:48.663Z,12.62
2023-02-07T02:27:48.687Z,12.41
2023-02-07T02:32:48.639Z,12.57
2023-02-07T02:37:48.619Z,12.46
2023-02-07T02:42:48.601Z,12.57
2023-02-07T02:47:48.599Z,12.46
2023-02-07T02:52:51.035Z,12.46
2023-02-07T02:57:48.560Z,12.51
2023-02-07T03:02:48.513Z,12.68
2023-02-07T03:07:48.517Z,12.57
2023-02-07T03:12:48.489Z,12.57
2023-02-07T03:17:48.486Z,12.68
2023-02-07T03:22:48.477Z,12.68
2023-02-07T03:27:48.494Z,12.84
2023-02-07T03:32:48.445Z,12.94
2023-02-07T03:37:48.451Z,12.94
2023-02-07T03:42:48.447Z,13.21
2023-02-07T03:47:48.406Z,12.94
2023-02-07T03:52:48.392Z,12.62
2023-02-07T03:57:48.362Z,12.51
2023-02-07T04:02:48.318Z,12.19
2023-02-07T04:07:48.277Z,12.46
2023-02-07T04:12:48.224Z,12.62
2023-02-07T04:17:48.217Z,12.41
2023-02-07T04:22:48.186Z,12.03
2023-02-07T04:27:48.181Z,12.08
2023-02-07T04:32:48.140Z,12.03
2023-02-07T04:37:48.132Z,12.03
2023-02-07T04:42:48.114Z,12.19
2023-02-07T04:47:48.093Z,12.03
2023-02-07T04:52:48.073Z,12.25
2023-02-07T04:57:48.071Z,12.19
2023-02-07T05:02:48.012Z,12.03
2023-02-07T05:07:47.996Z,12.19
2023-02-07T05:12:47.985Z,12.41
2023-02-07T05:17:47.986Z,12.68
2023-02-07T05:22:47.928Z,12.73
2023-02-07T05:27:47.978Z,13.21
2023-02-07T05:32:47.883Z,13.16
2023-02-07T05:37:47.883Z,13.37
2023-02-07T05:42:47.869Z,13.21
2023-02-07T05:47:47.866Z,13.37
2023-02-07T05:52:47.828Z,13.27
2023-02-07T05:57:47.809Z,13.16
2023-02-07T06:02:47.791Z,13.54
2023-02-07T06:07:47.724Z,13.27
2023-02-07T06:12:47.669Z,13.37
2023-02-07T06:17:47.661Z,13.37
2023-02-07T06:22:47.658Z,13.37
2023-02-07T06:27:47.679Z,13.27
2023-02-07T06:32:47.609Z,13.21
2023-02-07T06:37:47.603Z,13.27
2023-02-07T06:42:47.559Z,12.94
2023-02-07T06:47:47.579Z,13.27
2023-02-07T06:52:47.512Z,13.16
2023-02-07T06:57:47.505Z,13.05
2023-02-07T07:02:47.526Z,13.05
2023-02-07T07:15:53.270Z,13.16
2023-02-07T07:15:58.064Z,12.62
2023-02-07T07:20:58.028Z,12.84
2023-02-07T07:25:58.702Z,13.00
2023-02-07T07:31:02.584Z,12.73
2023-02-07T07:36:12.788Z,12.57
2023-02-07T07:40:58.024Z,12.78
2023-02-07T07:52:03.349Z,12.68
2023-02-07T07:52:08.140Z,12.78
2023-02-07T07:57:40.205Z,12.68
2023-02-07T08:02:08.065Z,12.68
2023-02-07T08:11:12.518Z,12.68
2023-02-07T08:12:08.036Z,12.19
2023-02-07T08:18:09.027Z,12.03
2023-02-07T08:23:11.370Z,12.84
2023-02-07T08:27:41.013Z,12.62
2023-02-07T08:32:10.726Z,12.41
2023-02-07T08:37:08.305Z,11.98
2023-02-07T08:42:17.466Z,12.41
2023-02-07T08:47:07.921Z,12.03
2023-02-07T08:52:07.811Z,12.62
2023-02-07T08:57:07.962Z,12.46
2023-02-07T09:02:09.313Z,12.08
2023-02-07T09:07:14.527Z,12.19
2023-02-07T11:27:06.944Z,12.19
2023-02-07T11:27:11.710Z,12.03
2023-02-07T11:32:13.312Z,12.19
2023-02-07T11:37:13.325Z,11.98
2023-02-07T11:42:13.358Z,12.62
2023-02-07T11:47:13.302Z,12.78
2023-02-07T11:55:10.320Z,12.03
2023-02-07T12:00:11.276Z,12.08
2023-02-07T12:05:07.028Z,12.08
2023-02-07T12:10:15.285Z,12.57
2023-02-07T12:15:08.690Z,12.51
2023-02-07T12:22:13.625Z,12.84
2023-02-07T14:39:30.354Z,12.84
2023-02-07T14:39:35.118Z,12.19
2023-02-07T14:44:38.714Z,12.51
2023-02-07T14:49:36.673Z,12.03
2023-02-07T14:54:35.170Z,12.41
2023-02-07T14:59:36.674Z,12.08
2023-02-07T15:17:07.203Z,12.46
2023-02-07T15:17:14.639Z,12.57
2023-02-07T15:22:25.508Z,11.87
2023-02-07T15:27:17.258Z,12.46
2023-02-07T15:34:18.713Z,12.41
2023-02-07T15:37:18.830Z,12.08
2023-02-07T15:42:18.832Z,12.30
2023-02-07T15:47:18.828Z,12.46
2023-02-07T15:52:18.913Z,12.62
2023-02-07T15:57:18.833Z,12.78
2023-02-07T16:02:15.236Z,12.84
2023-02-07T16:07:14.305Z,12.62
2023-02-07T16:12:14.307Z,12.68
2023-02-07T16:17:14.279Z,12.62
2023-02-07T16:22:14.241Z,12.62
2023-02-07T16:27:14.187Z,12.41
2023-02-07T16:32:14.175Z,12.62
2023-02-07T16:37:14.164Z,12.46
2023-02-07T16:42:14.163Z,12.57
2023-02-07T16:47:14.155Z,12.57
2023-02-07T16:52:14.163Z,12.03
2023-02-07T16:57:14.113Z,12.62
2023-02-07T17:02:14.139Z,12.62
2023-02-07T17:07:15.671Z,12.62
2023-02-07T17:12:14.055Z,12.35
2023-02-07T17:17:13.998Z,12.14
2023-02-07T17:22:13.953Z,12.46
2023-02-07T17:27:13.904Z,12.51
2023-02-07T17:32:13.922Z,12.35
2023-02-07T17:37:13.863Z,12.25
2023-02-07T17:42:13.852Z,12.41
2023-02-07T17:47:13.870Z,12.57
2023-02-07T17:52:13.769Z,12.57
2023-02-07T17:57:13.779Z,12.19
2023-02-07T18:02:13.680Z,12.62
2023-02-07T18:07:13.648Z,12.41
2023-02-07T18:12:13.633Z,12.35
2023-02-07T18:17:13.632Z,12.46
2023-02-07T18:22:13.579Z,12.62
2023-02-07T18:27:13.533Z,12.03
2023-02-07T18:32:13.539Z,12.46
2023-02-07T18:37:13.484Z,12.57
2023-02-07T18:42:13.485Z,12.57
2023-02-07T18:47:13.438Z,12.62
2023-02-07T18:52:13.433Z,12.73
2023-02-07T18:57:13.482Z,12.03
2023-02-07T19:02:13.488Z,11.98
2023-02-07T19:07:13.405Z,12.41
2023-02-07T19:12:13.686Z,12.08
2023-02-07T19:17:13.319Z,12.41
2023-02-07T19:22:14.195Z,12.08
2023-02-07T19:27:13.248Z,12.08
2023-02-07T19:32:13.238Z,12.14
2023-02-07T19:37:13.210Z,12.62
2023-02-07T19:42:13.204Z,12.19
2023-02-07T19:47:13.684Z,12.25
2023-02-07T19:52:13.139Z,12.14
2023-02-07T19:57:13.096Z,12.08
2023-02-07T20:02:13.036Z,12.41
2023-02-07T20:07:13.017Z,12.08
2023-02-07T20:12:13.019Z,12.03
2023-02-07T20:17:12.973Z,12.14
2023-02-07T20:22:12.962Z,12.25
2023-02-07T20:27:12.963Z,12.19
2023-02-07T20:32:13.019Z,12.46
2023-02-07T20:37:12.907Z,12.51
2023-02-07T20:42:12.894Z,11.98
2023-02-07T20:47:12.921Z,12.62
2023-02-07T20:52:12.809Z,12.51
2023-02-07T20:57:12.778Z,12.57
2023-02-07T21:02:12.808Z,12.08
2023-02-07T21:07:12.714Z,12.57
2023-02-07T21:12:12.671Z,12.46
2023-02-07T21:17:12.628Z,12.19
2023-02-07T21:22:12.612Z,11.98
2023-02-07T21:27:12.590Z,12.08
2023-02-07T21:32:12.552Z,12.03
2023-02-07T21:37:12.496Z,12.19
2023-02-07T21:42:12.504Z,12.19
2023-02-07T21:47:12.456Z,11.98
2023-02-07T21:52:12.492Z,12.03
2023-02-07T21:57:14.251Z,12.25
2023-02-07T22:02:12.472Z,12.08
2023-02-07T22:07:12.383Z,12.03
2023-02-07T22:12:12.387Z,12.19
2023-02-07T22:17:12.387Z,12.08
2023-02-07T22:22:12.337Z,12.03
2023-02-07T22:27:12.293Z,12.03
2023-02-07T22:32:12.292Z,11.87
2023-02-07T22:37:12.267Z,11.87
2023-02-07T22:42:12.211Z,11.82
2023-02-07T22:47:12.186Z,12.03
2023-02-07T22:52:12.233Z,12.08
2023-02-07T22:57:12.158Z,11.82
2023-02-07T23:02:12.203Z,12.08
2023-02-07T23:07:12.101Z,11.82
2023-02-07T23:12:12.057Z,11.92
2023-02-07T23:17:12.063Z,11.82
2023-02-07T23:22:11.994Z,11.98
2023-02-07T23:27:11.978Z,11.98
2023-02-07T23:32:11.960Z,11.98
2023-02-07T23:37:11.901Z,12.19
2023-02-07T23:42:11.851Z,12.19
2023-02-07T23:47:11.857Z,12.03
2023-02-07T23:52:11.822Z,11.98
2023-02-07T23:57:11.826Z,11.82
